sensor_id;sensor_type;location;lat;lon;timestamp;temperature;humidity
53498;DHT22;39382;47.168;16.008;2022-12-18T13:29:54;1.20;99.90
53498;DHT22;39382;47.168;16.008;2022-12-18T13:32:23;1.10;99.90
53498;DHT22;39382;47.168;16.008;2022-12-18T13:35:03;1.20;99.90
53498;DHT22;39382;47.168;16.008;2022-12-18T13:37:44;1.00;99.90
53498;DHT22;39382;47.168;16.008;2022-12-18T13:43:00;0.40;99.90
53498;DHT22;39382;47.168;16.008;2022-12-18T13:45:41;-0.10;99.90
53498;DHT22;39382;47.168;16.008;2022-12-18T13:48:14;0.10;99.90
53498;DHT22;39382;47.168;16.008;2022-12-18T13:50:40;0.10;99.90
53498;DHT22;39382;47.168;16.008;2022-12-18T13:53:11;0.10;99.90
53498;DHT22;39382;47.168;16.008;2022-12-18T15:19:14;1.20;99.90
53498;DHT22;39382;47.168;16.008;2022-12-18T15:21:42;1.20;99.90
53498;DHT22;39382;47.168;16.008;2022-12-18T15:24:13;1.10;99.90
53498;DHT22;39382;47.168;16.008;2022-12-18T15:26:41;0.90;99.90
53498;DHT22;39382;47.168;16.008;2022-12-18T15:29:15;0.80;99.90
53498;DHT22;39382;47.168;16.008;2022-12-18T15:31:43;0.60;99.90
53498;DHT22;39382;47.168;16.008;2022-12-18T15:34:17;0.50;99.90
53498;DHT22;39382;47.168;16.008;2022-12-18T15:36:43;0.30;99.90
53498;DHT22;39382;47.168;16.008;2022-12-18T15:39:10;0.30;99.90
53498;DHT22;39382;47.168;16.008;2022-12-18T15:41:36;0.40;99.90
53498;DHT22;39382;47.168;16.008;2022-12-18T15:44:02;0.10;99.90
53498;DHT22;39382;47.168;16.008;2022-12-18T15:46:28;0.00;99.90
53498;DHT22;39382;47.168;16.008;2022-12-18T15:53:46;1.70;99.90
53498;DHT22;39382;47.168;16.008;2022-12-18T15:56:13;1.50;99.90
53498;DHT22;39382;47.168;16.008;2022-12-18T16:15:59;0.10;99.90
53498;DHT22;39382;47.168;16.008;2022-12-18T16:18:25;-0.10;99.90
53498;DHT22;39382;47.168;16.008;2022-12-18T16:20:50;-0.20;99.90
53498;DHT22;39382;47.168;16.008;2022-12-18T16:23:16;-0.30;99.90
53498;DHT22;39382;47.168;16.008;2022-12-18T16:25:41;-0.30;99.90
53498;DHT22;39382;47.168;16.008;2022-12-18T16:28:07;-0.40;99.90
53498;DHT22;39382;47.168;16.008;2022-12-18T16:30:33;-0.40;99.90
53498;DHT22;39382;47.168;16.008;2022-12-18T16:32:58;-0.40;99.90
53498;DHT22;39382;47.168;16.008;2022-12-18T16:35:24;-0.30;99.90
53498;DHT22;39382;47.168;16.008;2022-12-18T16:37:50;0.50;99.90
53498;DHT22;39382;47.168;16.008;2022-12-18T16:40:16;0.10;99.90
53498;DHT22;39382;47.168;16.008;2022-12-18T16:42:43;0.10;99.90
53498;DHT22;39382;47.168;16.008;2022-12-18T16:45:11;0.60;99.90
53498;DHT22;39382;47.168;16.008;2022-12-18T16:47:37;-0.10;99.90
53498;DHT22;39382;47.168;16.008;2022-12-18T16:50:03;-0.20;99.90
53498;DHT22;39382;47.168;16.008;2022-12-18T16:52:29;-0.30;99.90
53498;DHT22;39382;47.168;16.008;2022-12-18T16:54:55;-0.30;99.90
53498;DHT22;39382;47.168;16.008;2022-12-18T16:57:21;0.00;99.90
53498;DHT22;39382;47.168;16.008;2022-12-18T16:59:47;-0.50;99.90
53498;DHT22;39382;47.168;16.008;2022-12-18T17:02:21;-0.60;99.90
53498;DHT22;39382;47.168;16.008;2022-12-18T17:04:47;-0.50;99.90
53498;DHT22;39382;47.168;16.008;2022-12-18T17:07:13;-0.70;99.90
53498;DHT22;39382;47.168;16.008;2022-12-18T17:09:39;-0.30;99.90
53498;DHT22;39382;47.168;16.008;2022-12-18T17:12:05;-0.80;99.90
53498;DHT22;39382;47.168;16.008;2022-12-18T17:14:31;-0.80;99.90
53498;DHT22;39382;47.168;16.008;2022-12-18T17:16:57;-0.90;99.90
53498;DHT22;39382;47.168;16.008;2022-12-18T17:19:25;-1.00;99.90
53498;DHT22;39382;47.168;16.008;2022-12-18T17:21:50;-1.00;99.90
53498;DHT22;39382;47.168;16.008;2022-12-18T17:24:16;-1.00;99.90
53498;DHT22;39382;47.168;16.008;2022-12-18T17:26:42;-1.00;99.90
53498;DHT22;39382;47.168;16.008;2022-12-18T17:29:09;-1.10;99.90
53498;DHT22;39382;47.168;16.008;2022-12-18T17:31:37;-0.70;99.90
53498;DHT22;39382;47.168;16.008;2022-12-18T17:34:03;-1.10;99.90
53498;DHT22;39382;47.168;16.008;2022-12-18T17:36:28;-1.10;99.90
